Eva Bulker — V7NI3 — position and weather

sailwx.info

Track history (hours):
 
Tides and Currents Weather Stations Pressure Air Temp Water Temp Dewpoint Dewpoint Depression Visibility Wind Speed Wind Dir Waves Ship Positions

Eva Bulker

Last reported at 2018-Jan-06 02:38 UTC. Time now 2018-Feb-18 18:34 UTC.
Position N 23°51' E 118°20'.
Warning: this ship's position is 43 days out of date.

Length 185 m; draft 9.1 m.

Type: Cargo ship. MMSI: 538006456.

Date/timePositionNaut miles runAvg speedWind from/ knotsBaromVisibWave heightAir tempDewpointWater temp
2018-Jan-06 02:38N 23°51' E 118°20'211.9
2018-Jan-06 02:30N 23°52' E 118°21'611.9
2018-Jan-06 02:00N 23°57' E 118°25'612.1
2018-Jan-06 01:30N 24°01' E 118°30'612.3
2018-Jan-06 00:59N 24°05' E 118°36'712.6
2018-Jan-06 00:25N 24°09' E 118°42'  
2017-Dec-29 07:44N 38°31' E 121°34'1014.0
2017-Dec-29 07:03N 38°32' E 121°46'114.3
2017-Dec-29 07:01N 38°32' E 121°47'1013.9
2017-Dec-29 06:19N 38°34' E 121°59'  
Track history (hours):
 
Tides and Currents Weather Stations Pressure Air Temp Water Temp Dewpoint Dewpoint Depression Visibility Wind Speed Wind Dir Waves Ship Positions

Eva Bulker

Last reported at 2018-Jan-06 02:38 UTC. Time now 2018-Feb-18 18:34 UTC.
Position N 23°51' E 118°20'.
Warning: this ship's position is 43 days out of date.

Length 185 m; draft 9.1 m.

Type: Cargo ship. MMSI: 538006456.

Date/timePositionNaut miles runAvg speedWind from/ knotsBaromVisibWave heightAir tempDewpointWater temp
2018-Jan-06 02:38N 23°51' E 118°20'211.9
2018-Jan-06 02:30N 23°52' E 118°21'611.9
2018-Jan-06 02:00N 23°57' E 118°25'612.1
2018-Jan-06 01:30N 24°01' E 118°30'612.3
2018-Jan-06 00:59N 24°05' E 118°36'712.6
2018-Jan-06 00:25N 24°09' E 118°42'  
2017-Dec-29 07:44N 38°31' E 121°34'1014.0
2017-Dec-29 07:03N 38°32' E 121°46'114.3
2017-Dec-29 07:01N 38°32' E 121°47'1013.9
2017-Dec-29 06:19N 38°34' E 121°59'  

Dump ship's entire track history